M I D A S
Marine Information and Data Acquisition System
Tripno 1184 of the Zeeleeuw from 2006-11-28 08:03:03 to 2006-11-28 14:25:56
Back to CruiseResearch ActivitiesStationsMapUnderway DataData graphs

EquipmentUnitsComment
TimeDGPSUTC
LatitudeDGPSDM.mWGS84
LongitudeDGPSDM.mWGS84
HeadingGyrodeg 
SOGDGPSknotsSpeed over ground
COGDGPSdegCourse over ground
DepthEcho soundermeters200 kHz
Missing or incorrect values are displayed as -999
Navigation data collected by the RV Zeeleeuw from 2006-11-28 07:55:09 to 2006-11-28 08:31:48
Time Latitude Longitude Heading SOG COG Depth
2006-11-28 07:55:18 51°13.599 2°56.093 116.3 0.6 296 8.3
2006-11-28 07:55:23 51°13.599 2°56.092 116.1 0.8 296 -999
2006-11-28 07:55:28 51°13.6 2°56.09 116.1 0.9 297 8.1
2006-11-28 07:55:34 51°13.601 2°56.087 116.1 1.2 297 8.3
2006-11-28 07:55:38 51°13.601 2°56.085 116.4 1.4 297 8.4
2006-11-28 07:55:44 51°13.602 2°56.081 116.6 1.7 298 -999
2006-11-28 07:55:49 51°13.604 2°56.077 116.8 1.9 298 -999
2006-11-28 07:55:54 51°13.605 2°56.073 116.9 2.1 297 -999
2006-11-28 07:55:59 51°13.606 2°56.068 116.9 2.4 298 -999
2006-11-28 07:56:04 51°13.608 2°56.063 116.8 2.5 296 -999
2006-11-28 07:56:09 51°13.61 2°56.057 116.5 2.8 296 -999
2006-11-28 07:56:14 51°13.611 2°56.051 116.1 2.9 294 -999
2006-11-28 07:56:19 51°13.613 2°56.045 116 3 294 -999
2006-11-28 07:56:24 51°13.615 2°56.039 115.8 3.1 294 -999
2006-11-28 07:56:29 51°13.616 2°56.032 115.8 3.2 293 -999
2006-11-28 07:56:34 51°13.618 2°56.025 115.7 3.3 293 -999
2006-11-28 07:56:39 51°13.62 2°56.019 115.7 3.4 292 -999
2006-11-28 07:56:44 51°13.622 2°56.012 115.8 3.4 292 -999
2006-11-28 07:56:49 51°13.624 2°56.004 116.2 3.5 292 -999
2006-11-28 07:56:54 51°13.626 2°55.997 116.8 3.5 293 -999
2006-11-28 07:56:59 51°13.627 2°55.99 117.7 3.6 293 -999
2006-11-28 07:57:04 51°13.63 2°55.983 118.9 3.6 295 -999
2006-11-28 07:57:09 51°13.632 2°55.975 119.7 3.7 294 -999
2006-11-28 07:57:14 51°13.634 2°55.968 120.3 3.7 296 -999
2006-11-28 07:57:19 51°13.636 2°55.96 121 3.8 296 -999
2006-11-28 07:57:24 51°13.639 2°55.953 121.7 3.8 298 -999
2006-11-28 07:57:29 51°13.641 2°55.946 122.4 3.9 298 -999
2006-11-28 07:57:34 51°13.644 2°55.938 123 3.9 299 -999
2006-11-28 07:57:39 51°13.647 2°55.93 123.5 4 300 4.7
2006-11-28 07:57:44 51°13.65 2°55.923 124 4 300 -999
2006-11-28 07:57:49 51°13.653 2°55.915 124.3 4.1 300 -999
2006-11-28 07:57:54 51°13.656 2°55.907 124.6 4.1 301 -999
2006-11-28 07:57:59 51°13.659 2°55.899 124.9 4.1 301 -999
2006-11-28 07:58:04 51°13.662 2°55.891 125.1 4.2 302 -999
2006-11-28 07:58:09 51°13.665 2°55.884 125.5 4.2 303 -999
2006-11-28 07:58:14 51°13.668 2°55.875 125.8 4.3 302 -999
2006-11-28 07:58:19 51°13.671 2°55.867 126.1 4.3 302 -999
2006-11-28 07:58:24 51°13.674 2°55.86 126.2 4.3 302 -999
2006-11-28 07:58:29 51°13.677 2°55.851 126 4.4 303 -999
2006-11-28 07:58:34 51°13.681 2°55.843 125.5 4.4 302 -999
2006-11-28 07:58:39 51°13.684 2°55.834 125 4.5 303 -999
2006-11-28 07:58:44 51°13.688 2°55.826 124.3 4.6 302 -999
2006-11-28 07:58:49 51°13.691 2°55.817 123.4 4.6 302 -999
2006-11-28 07:58:54 51°13.694 2°55.809 122.3 4.5 300 -999
2006-11-28 07:58:59 51°13.697 2°55.8 121 4.4 300 -999
2006-11-28 07:59:04 51°13.7 2°55.792 119.5 4.3 299 -999
2006-11-28 07:59:09 51°13.702 2°55.784 117.7 4.2 297 -999
2006-11-28 07:59:14 51°13.705 2°55.776 116.2 4.1 296 -999
2006-11-28 07:59:19 51°13.707 2°55.767 113.9 4 294 -999
2006-11-28 07:59:24 51°13.709 2°55.76 111.7 3.9 292 -999
2006-11-28 07:59:29 51°13.711 2°55.752 109.6 3.8 291 -999
2006-11-28 07:59:34 51°13.712 2°55.745 107.7 3.6 289 40.9
2006-11-28 07:59:39 51°13.714 2°55.737 105.9 3.4 289 -999
2006-11-28 07:59:44 51°13.715 2°55.73 104.5 3.3 287 -999
2006-11-28 07:59:48 51°13.716 2°55.725 103 3.1 288 13.4
2006-11-28 07:59:54 51°13.717 2°55.718 101.9 2.8 285 12.6
2006-11-28 07:59:58 51°13.718 2°55.714 100.2 2.4 286 12.7
2006-11-28 08:00:03 51°13.719 2°55.711 98.4 1.7 288 12.9
2006-11-28 08:00:08 51°13.72 2°55.709 94.3 0.9 307 12.9
2006-11-28 08:00:13 51°13.72 2°55.709 90.6 0.6 2 12.9
2006-11-28 08:00:18 51°13.721 2°55.711 84.3 1.1 39 12.6
2006-11-28 08:00:23 51°13.723 2°55.714 76.7 1.7 47 12.4
2006-11-28 08:00:28 51°13.725 2°55.717 68.2 2.1 45 12.3
2006-11-28 08:00:33 51°13.728 2°55.721 57.8 2.6 43 11.9
2006-11-28 08:00:38 51°13.731 2°55.725 49.9 2.5 35 11.7
2006-11-28 08:00:43 51°13.733 2°55.727 44.2 2.3 33 11.7
2006-11-28 08:00:48 51°13.736 2°55.729 41.2 2 30 11.8
2006-11-28 08:00:54 51°13.737 2°55.731 38.7 1.3 33 11.2
2006-11-28 08:00:59 51°13.738 2°55.731 35.5 0.7 19 11.2
2006-11-28 08:01:03 51°13.738 2°55.732 33.3 0.2 18 11.1
2006-11-28 08:01:08 51°13.738 2°55.731 31.3 0.3 229 11.1
2006-11-28 08:01:13 51°13.737 2°55.73 30.7 0.8 213 11.1
2006-11-28 08:01:18 51°13.736 2°55.729 30.3 1.2 212 11.3
2006-11-28 08:01:24 51°13.734 2°55.727 30.1 1.5 210 -999
2006-11-28 08:01:29 51°13.731 2°55.724 30.1 1.8 212 -999
2006-11-28 08:01:34 51°13.729 2°55.722 30 2 211 -999
2006-11-28 08:01:39 51°13.727 2°55.72 30 1.9 214 -999
2006-11-28 08:01:44 51°13.725 2°55.718 29.7 1.8 211 -999
2006-11-28 08:01:49 51°13.723 2°55.716 29 1.5 218 -999
2006-11-28 08:01:54 51°13.722 2°55.715 28.4 1.1 217 -999
2006-11-28 08:01:59 51°13.721 2°55.713 26.9 0.8 227 -999
2006-11-28 08:02:04 51°13.721 2°55.713 23.7 0.4 255 -999
2006-11-28 08:02:09 51°13.721 2°55.712 20.1 0.4 311 -999
2006-11-28 08:02:14 51°13.722 2°55.712 16.7 0.7 341 12.4
2006-11-28 08:02:18 51°13.723 2°55.711 13 1 349 12.4
2006-11-28 08:02:24 51°13.725 2°55.711 7.9 1.2 350 -999
2006-11-28 08:02:29 51°13.727 2°55.71 1.4 1.3 347 -999
2006-11-28 08:02:34 51°13.729 2°55.709 356.5 1.5 346 -999
2006-11-28 08:02:39 51°13.732 2°55.708 352.5 1.7 344 -999
2006-11-28 08:02:44 51°13.734 2°55.707 349.2 1.9 343 4.8
2006-11-28 08:02:48 51°13.736 2°55.706 347.1 2 341 12.1
2006-11-28 08:02:53 51°13.739 2°55.704 345.1 2.3 339 11.7
2006-11-28 08:02:58 51°13.743 2°55.702 343.5 2.7 338 11.8
2006-11-28 08:03:03 51°13.746 2°55.699 342.5 3 337 11.5
2006-11-28 08:03:08 51°13.751 2°55.696 342 3.3 337 11.5
2006-11-28 08:03:13 51°13.755 2°55.693 341.9 3.6 337 11.3
2006-11-28 08:03:18 51°13.76 2°55.69 342.1 3.8 337 11.2
2006-11-28 08:03:23 51°13.765 2°55.687 342.3 4.1 337 11.2
2006-11-28 08:03:28 51°13.771 2°55.683 342.5 4.2 337 11.2
2006-11-28 08:03:33 51°13.776 2°55.679 342.4 4.5 337 11.1
2006-11-28 08:03:38 51°13.782 2°55.675 341.8 4.6 337 11.1
2006-11-28 08:03:43 51°13.788 2°55.671 341.7 4.8 337 10.9
2006-11-28 08:03:48 51°13.795 2°55.666 341.6 5.2 337 11.6
2006-11-28 08:03:53 51°13.802 2°55.661 341.6 5.7 337 11.3
2006-11-28 08:03:58 51°13.81 2°55.656 341.8 6.2 337 11.3
2006-11-28 08:04:03 51°13.818 2°55.65 341.9 6.6 337 11
2006-11-28 08:04:08 51°13.827 2°55.644 342 6.9 337 11.1
2006-11-28 08:04:13 51°13.836 2°55.638 341.9 7.2 337 11.3
2006-11-28 08:04:18 51°13.846 2°55.632 341.7 7.5 337 11
2006-11-28 08:04:23 51°13.856 2°55.624 341 7.6 336 10.7
2006-11-28 08:04:28 51°13.865 2°55.618 340.9 7.5 336 10.6
2006-11-28 08:04:33 51°13.874 2°55.611 340.9 7.3 336 10.7
2006-11-28 08:04:38 51°13.884 2°55.605 341.1 7.2 337 10.9
2006-11-28 08:04:44 51°13.894 2°55.598 341.4 7 337 11.1
2006-11-28 08:04:48 51°13.901 2°55.593 341.8 6.9 337 11.1
2006-11-28 08:04:53 51°13.91 2°55.587 341.9 6.7 336 11.3
2006-11-28 08:04:58 51°13.918 2°55.581 341.9 6.6 337 11.9
2006-11-28 08:05:03 51°13.926 2°55.575 341.9 6.5 337 11.4
2006-11-28 08:05:08 51°13.934 2°55.57 342.1 6.4 337 11.3
2006-11-28 08:05:13 51°13.942 2°55.564 342.2 6.3 337 10.9
2006-11-28 08:05:18 51°13.95 2°55.559 341.9 6.2 337 11
2006-11-28 08:05:23 51°13.958 2°55.554 341.6 6.1 337 10.8
2006-11-28 08:05:28 51°13.965 2°55.549 341.3 6 337 10.7
2006-11-28 08:05:34 51°13.974 2°55.543 341.1 5.9 336 11.7
2006-11-28 08:05:38 51°13.98 2°55.539 341.1 5.9 337 10.8
2006-11-28 08:05:43 51°13.988 2°55.534 341 5.8 336 11
2006-11-28 08:05:48 51°13.995 2°55.529 340.8 5.8 337 10.9
2006-11-28 08:05:53 51°14.003 2°55.524 340.7 5.7 336 10.9
2006-11-28 08:05:58 51°14.01 2°55.519 340.7 5.7 337 11.3
2006-11-28 08:06:03 51°14.017 2°55.514 340.7 5.6 336 11
2006-11-28 08:06:08 51°14.024 2°55.509 340.6 5.6 336 11
2006-11-28 08:06:13 51°14.031 2°55.504 340.4 5.6 336 11
2006-11-28 08:06:19 51°14.039 2°55.499 340.1 5.6 336 11.1
2006-11-28 08:06:24 51°14.046 2°55.493 340 5.5 335 11.3
2006-11-28 08:06:28 51°14.052 2°55.489 339.9 5.5 336 11.5
2006-11-28 08:06:33 51°14.058 2°55.484 339.8 5.5 335 11.4
2006-11-28 08:06:38 51°14.065 2°55.479 339.8 5.5 335 11.7
2006-11-28 08:06:43 51°14.072 2°55.474 340.1 5.6 336 11.6
2006-11-28 08:06:48 51°14.08 2°55.469 340.4 5.7 336 11.6
2006-11-28 08:06:53 51°14.087 2°55.464 340.7 5.8 336 11.6
2006-11-28 08:06:58 51°14.094 2°55.458 341.1 5.9 336 11.7
2006-11-28 08:07:04 51°14.104 2°55.452 341.1 6.1 336 11.6
2006-11-28 08:07:08 51°14.11 2°55.447 341.1 6.3 336 11.6
2006-11-28 08:07:14 51°14.12 2°55.44 340.9 6.6 336 11.7
2006-11-28 08:07:18 51°14.127 2°55.435 340.6 6.8 336 11.7
2006-11-28 08:07:23 51°14.136 2°55.429 340.5 7 336 11.7
2006-11-28 08:07:28 51°14.146 2°55.422 340.4 7.4 335 11.8
2006-11-28 08:07:33 51°14.156 2°55.415 339.9 7.8 335 11.8
2006-11-28 08:07:38 51°14.165 2°55.407 339.4 8 334 11.8
2006-11-28 08:07:43 51°14.176 2°55.399 338.4 8.3 333 11.4
2006-11-28 08:07:48 51°14.186 2°55.39 337.1 8.4 332 12
2006-11-28 08:07:54 51°14.199 2°55.378 336.1 8.7 330 11.3
2006-11-28 08:07:58 51°14.207 2°55.37 334.7 8.8 329 11.2
2006-11-28 08:08:04 51°14.219 2°55.357 333.1 9 327 11.4
2006-11-28 08:08:08 51°14.228 2°55.348 331.5 9 326 11.6
2006-11-28 08:08:14 51°14.24 2°55.334 329.9 9.1 324 11.3
2006-11-28 08:08:18 51°14.248 2°55.323 328.3 9.3 322 11
2006-11-28 08:08:23 51°14.258 2°55.311 326.6 9.2 321 11.2
2006-11-28 08:08:28 51°14.267 2°55.297 324.9 9.2 319 11.1
2006-11-28 08:08:33 51°14.277 2°55.283 323 9.1 316 10.9
2006-11-28 08:08:39 51°14.287 2°55.266 321 9 315 10.9
2006-11-28 08:08:43 51°14.294 2°55.255 319 9 313 10.7
2006-11-28 08:08:48 51°14.302 2°55.24 317.2 9 312 10.5
2006-11-28 08:08:53 51°14.31 2°55.225 315.9 9.1 311 10.2
2006-11-28 08:08:58 51°14.319 2°55.209 315.2 9.3 310 10.1
2006-11-28 08:09:04 51°14.329 2°55.19 314.9 9.5 311 10
2006-11-28 08:09:08 51°14.336 2°55.176 314.7 9.7 310 10.1
2006-11-28 08:09:14 51°14.347 2°55.156 314.4 10 310 10.1
2006-11-28 08:09:18 51°14.353 2°55.141 312.9 10.2 307 10.2
2006-11-28 08:09:23 51°14.362 2°55.123 311.9 10.4 307 10.4
2006-11-28 08:09:28 51°14.371 2°55.104 312.4 10.6 308 10.9
2006-11-28 08:09:34 51°14.382 2°55.081 312.6 10.8 307 11.1
2006-11-28 08:09:38 51°14.39 2°55.066 311.9 11 307 11.2
2006-11-28 08:09:43 51°14.399 2°55.046 310.9 11.3 305 11.3
2006-11-28 08:09:48 51°14.407 2°55.025 309.6 11.4 304 11.3
2006-11-28 08:09:54 51°14.418 2°54.998 307.7 11.6 301 11.4
2006-11-28 08:09:58 51°14.424 2°54.98 305.6 11.7 299 11.5
2006-11-28 08:10:03 51°14.431 2°54.957 303.1 11.8 297 11.4
2006-11-28 08:10:08 51°14.438 2°54.933 300.7 11.8 295 11.4
2006-11-28 08:10:13 51°14.445 2°54.909 298.3 11.9 292 11.5
2006-11-28 08:10:18 51°14.45 2°54.884 295.5 11.9 290 11.6
2006-11-28 08:10:24 51°14.455 2°54.853 292.3 12 286 11.4
2006-11-28 08:10:28 51°14.459 2°54.833 289.3 12 285 11.5
2006-11-28 08:10:33 51°14.463 2°54.807 287.4 12 284 11.5
2006-11-28 08:10:38 51°14.466 2°54.781 285.8 12.1 282 11.5
2006-11-28 08:10:43 51°14.469 2°54.754 284.7 12.1 281 11.4
2006-11-28 08:10:48 51°14.472 2°54.728 283.8 12.2 281 11.5
2006-11-28 08:10:53 51°14.475 2°54.701 283 12.3 279 11.4
2006-11-28 08:10:58 51°14.477 2°54.674 281.2 12.4 277 11.5
2006-11-28 08:11:04 51°14.478 2°54.64 279.2 12.5 275 11.4
2006-11-28 08:11:08 51°14.479 2°54.618 276.9 12.6 273 11.3
2006-11-28 08:11:13 51°14.479 2°54.591 274.3 12.5 271 11.3
2006-11-28 08:11:18 51°14.478 2°54.563 271.7 12.5 267 11.3
2006-11-28 08:11:23 51°14.476 2°54.535 268.7 12.6 264 11.2
2006-11-28 08:11:28 51°14.474 2°54.507 265.8 12.7 262 11.3
2006-11-28 08:11:33 51°14.47 2°54.48 262.8 12.7 258 11.3
2006-11-28 08:11:38 51°14.465 2°54.453 259.9 12.8 255 11.3
2006-11-28 08:11:43 51°14.46 2°54.426 256.6 12.8 253 11.4
2006-11-28 08:11:48 51°14.453 2°54.399 254 12.8 250 11.5
2006-11-28 08:11:53 51°14.446 2°54.373 251.2 12.9 247 11.2
2006-11-28 08:11:58 51°14.439 2°54.347 249.3 12.9 245 10.9
2006-11-28 08:12:03 51°14.431 2°54.321 247.5 12.9 243 10.5
2006-11-28 08:12:08 51°14.422 2°54.296 245.7 12.9 242 10.5
2006-11-28 08:12:14 51°14.412 2°54.267 244 12.9 240 10.4
2006-11-28 08:12:18 51°14.404 2°54.247 242.3 12.9 239 10.3
2006-11-28 08:12:24 51°14.393 2°54.218 241.2 13 238 10.3
2006-11-28 08:12:28 51°14.385 2°54.198 240.9 13 238 10.3
2006-11-28 08:12:33 51°14.376 2°54.174 240.5 13 238 10.3
2006-11-28 08:12:38 51°14.367 2°54.15 240.3 13 239 10.3
2006-11-28 08:12:44 51°14.355 2°54.12 240.7 13 238 10.3
2006-11-28 08:12:48 51°14.348 2°54.1 240.9 13.1 239 10.3
2006-11-28 08:12:53 51°14.338 2°54.076 241 13.1 239 10.2
2006-11-28 08:12:58 51°14.329 2°54.051 241.2 13.1 239 10.2
2006-11-28 08:13:03 51°14.319 2°54.026 241 13.1 238 10.2
2006-11-28 08:13:08 51°14.31 2°54.002 240.9 13.1 239 10.2
2006-11-28 08:13:13 51°14.3 2°53.977 240.9 13.2 239 10.2
2006-11-28 08:13:18 51°14.291 2°53.952 240.9 13.2 238 10.4
2006-11-28 08:13:24 51°14.28 2°53.922 241.2 13.1 239 10.3
2006-11-28 08:13:28 51°14.272 2°53.902 240.9 13.2 238 10.2
2006-11-28 08:13:33 51°14.262 2°53.877 241.3 13.2 239 10.3
2006-11-28 08:13:38 51°14.253 2°53.852 241.5 13.2 239 10.3
2006-11-28 08:13:43 51°14.244 2°53.827 241.4 13.2 239 10.2
2006-11-28 08:13:48 51°14.234 2°53.802 241.3 13.2 238 10.3
2006-11-28 08:13:53 51°14.224 2°53.777 241.1 13.2 239 10.3
2006-11-28 08:13:59 51°14.213 2°53.748 241.1 13.2 239 10.3
2006-11-28 08:14:03 51°14.206 2°53.727 241.3 13.2 240 10.2
2006-11-28 08:14:08 51°14.196 2°53.702 241.7 13.2 239 10.3
2006-11-28 08:14:13 51°14.187 2°53.677 241.6 13.2 239 10.2
2006-11-28 08:14:18 51°14.177 2°53.652 241.6 13.2 239 10.4
2006-11-28 08:14:23 51°14.168 2°53.627 241.6 13.2 239 10.4
2006-11-28 08:14:28 51°14.158 2°53.602 241.4 13.3 239 10.4
2006-11-28 08:14:33 51°14.149 2°53.577 241.5 13.2 239 10.4
2006-11-28 08:14:38 51°14.14 2°53.552 241.7 13.2 239 10.4
2006-11-28 08:14:43 51°14.13 2°53.526 241.6 13.3 239 10.5
2006-11-28 08:14:48 51°14.121 2°53.501 241.3 13.2 238 10.4
2006-11-28 08:14:52 51°14.113 2°53.481 241.2 13.2 239 10.4
2006-11-28 08:14:58 51°14.102 2°53.451 241.3 13.2 239 10.5
2006-11-28 08:15:04 51°14.091 2°53.421 241.6 13.2 239 10.5
2006-11-28 08:15:08 51°14.083 2°53.401 241.6 13.2 240 10.5
2006-11-28 08:15:14 51°14.072 2°53.37 241.7 13.2 239 10.6
2006-11-28 08:15:18 51°14.065 2°53.35 241.6 13.2 239 10.6
2006-11-28 08:15:23 51°14.055 2°53.325 241.4 13.3 239 10.6
2006-11-28 08:15:28 51°14.046 2°53.3 241.6 13.2 239 10.5
2006-11-28 08:15:32 51°14.039 2°53.28 241.6 13.2 239 10.6
2006-11-28 08:15:38 51°14.027 2°53.25 241.4 13.2 239 10.6
2006-11-28 08:15:44 51°14.016 2°53.22 241.4 13.2 239 10.7
2006-11-28 08:15:48 51°14.008 2°53.2 241.4 13.2 239 10.8
2006-11-28 08:15:53 51°13.998 2°53.175 241.3 13.3 239 10.7
2006-11-28 08:15:58 51°13.989 2°53.15 241.6 13.3 239 10.8
2006-11-28 08:16:03 51°13.98 2°53.124 241.7 13.3 239 10.7
2006-11-28 08:16:08 51°13.971 2°53.099 242 13.2 240 10.8
2006-11-28 08:16:13 51°13.962 2°53.074 242 13.3 239 10.7
2006-11-28 08:16:18 51°13.952 2°53.048 242 13.2 239 10.8
2006-11-28 08:16:23 51°13.943 2°53.023 241.7 13.3 239 10.9
2006-11-28 08:16:28 51°13.933 2°52.998 241.7 13.3 239 10.8
2006-11-28 08:16:33 51°13.924 2°52.973 241.9 13.3 240 10.9
2006-11-28 08:16:38 51°13.914 2°52.948 242.1 13.3 240 10.9
2006-11-28 08:16:43 51°13.905 2°52.923 242 13.3 239 10.9
2006-11-28 08:16:48 51°13.896 2°52.897 241.6 13.3 239 10.9
2006-11-28 08:16:54 51°13.884 2°52.867 241.7 13.2 240 10.9
2006-11-28 08:16:59 51°13.875 2°52.842 241.8 13.2 239 10.9
2006-11-28 08:17:03 51°13.868 2°52.821 242 13.3 240 11
2006-11-28 08:17:08 51°13.858 2°52.796 242.2 13.3 239 11
2006-11-28 08:17:12 51°13.851 2°52.776 242.1 13.3 239 11
2006-11-28 08:17:18 51°13.839 2°52.746 241.8 13.2 239 11
2006-11-28 08:17:23 51°13.83 2°52.721 241.8 13.3 240 11
2006-11-28 08:17:28 51°13.821 2°52.695 242.1 13.2 240 11
2006-11-28 08:17:33 51°13.812 2°52.67 242.3 13.2 240 11
2006-11-28 08:17:38 51°13.802 2°52.645 242.2 13.3 240 11
2006-11-28 08:17:43 51°13.793 2°52.62 242.1 13.2 240 11
2006-11-28 08:17:48 51°13.784 2°52.595 242.1 13.2 240 11
2006-11-28 08:17:53 51°13.774 2°52.569 241.9 13.2 239 11.1
2006-11-28 08:17:58 51°13.765 2°52.544 241.9 13.2 239 11
2006-11-28 08:18:04 51°13.754 2°52.514 241.8 13.2 240 11
2006-11-28 08:18:08 51°13.747 2°52.494 242 13.2 240 11
2006-11-28 08:18:13 51°13.737 2°52.468 242.2 13.2 240 11.1
2006-11-28 08:18:18 51°13.728 2°52.443 242.3 13.2 240 11.1
2006-11-28 08:18:23 51°13.719 2°52.418 242.4 13.3 240 11.1
2006-11-28 08:18:28 51°13.71 2°52.392 242.4 13.2 240 11.1
2006-11-28 08:18:33 51°13.701 2°52.367 242.3 13.2 240 11.1
2006-11-28 08:18:38 51°13.691 2°52.342 242 13.3 240 11.1
2006-11-28 08:18:43 51°13.682 2°52.317 242 13.3 240 11.1
2006-11-28 08:18:48 51°13.672 2°52.292 241.7 13.2 239 11.1
2006-11-28 08:18:54 51°13.661 2°52.262 241.6 13.3 239 11.1
2006-11-28 08:18:58 51°13.654 2°52.242 241.8 13.3 240 11.2
2006-11-28 08:19:03 51°13.645 2°52.217 241.9 13.3 240 11.2
2006-11-28 08:19:08 51°13.635 2°52.191 241.9 13.3 240 11.2
2006-11-28 08:19:14 51°13.624 2°52.16 242.3 13.3 240 11.2
2006-11-28 08:19:18 51°13.617 2°52.14 242.1 13.3 240 11.3
2006-11-28 08:19:23 51°13.607 2°52.115 241.8 13.3 240 11.2
2006-11-28 08:19:28 51°13.598 2°52.089 241.9 13.3 240 11.2
2006-11-28 08:19:33 51°13.589 2°52.064 242 13.3 240 11.2
2006-11-28 08:19:38 51°13.58 2°52.039 242 13.3 240 11.1
2006-11-28 08:19:43 51°13.57 2°52.013 242.2 13.3 240 11.2
2006-11-28 08:19:48 51°13.561 2°51.988 242.1 13.3 239 11.2
2006-11-28 08:19:53 51°13.552 2°51.962 242 13.3 240 11.2
2006-11-28 08:19:58 51°13.543 2°51.937 242 13.3 240 11.2
2006-11-28 08:20:03 51°13.534 2°51.912 242 13.3 240 11.2
2006-11-28 08:20:08 51°13.524 2°51.886 242 13.2 240 11.3
2006-11-28 08:20:13 51°13.515 2°51.861 241.9 13.2 239 11.2
2006-11-28 08:20:18 51°13.506 2°51.836 241.7 13.3 240 11.3
2006-11-28 08:20:24 51°13.495 2°51.805 241.7 13.3 240 11.3
2006-11-28 08:20:28 51°13.487 2°51.785 242 13.3 240 11.3
2006-11-28 08:20:33 51°13.478 2°51.76 242 13.3 240 11.3
2006-11-28 08:20:38 51°13.469 2°51.734 242 13.3 240 11.3
2006-11-28 08:20:43 51°13.46 2°51.709 242.2 13.3 240 11.3
2006-11-28 08:20:48 51°13.451 2°51.683 242.2 13.3 240 11.3
2006-11-28 08:20:53 51°13.441 2°51.658 242 13.3 239 11.3
2006-11-28 08:20:58 51°13.432 2°51.632 241.8 13.3 240 11.3
2006-11-28 08:21:03 51°13.423 2°51.607 242 13.3 240 11.2
2006-11-28 08:21:08 51°13.413 2°51.581 242.3 13.3 240 11.3
2006-11-28 08:21:13 51°13.404 2°51.556 242.1 13.3 240 11.3
2006-11-28 08:21:19 51°13.393 2°51.525 242.1 13.3 240 11.3
2006-11-28 08:21:24 51°13.384 2°51.5 242.3 13.3 241 11.3
2006-11-28 08:21:28 51°13.376 2°51.48 242.4 13.3 240 11.4
2006-11-28 08:21:33 51°13.367 2°51.454 242.2 13.3 240 11.4
2006-11-28 08:21:38 51°13.358 2°51.429 242.2 13.3 240 11.3
2006-11-28 08:21:43 51°13.349 2°51.403 242.2 13.2 240 11.3
2006-11-28 08:21:48 51°13.34 2°51.378 242.3 13.3 240 11.4
2006-11-28 08:21:53 51°13.331 2°51.352 242.5 13.3 240 11.4
2006-11-28 08:21:58 51°13.321 2°51.327 242.4 13.3 240 11.4
2006-11-28 08:22:03 51°13.312 2°51.301 242.3 13.3 241 11.3
2006-11-28 08:22:08 51°13.303 2°51.276 242.4 13.3 240 11.4
2006-11-28 08:22:13 51°13.294 2°51.25 242.4 13.3 240 11.4
2006-11-28 08:22:18 51°13.285 2°51.225 242.2 13.3 240 11.4
2006-11-28 08:22:24 51°13.274 2°51.194 242 13.3 240 11.5
2006-11-28 08:22:28 51°13.267 2°51.174 242.1 13.3 240 11.4
2006-11-28 08:22:33 51°13.258 2°51.148 242.1 13.3 240 11.4
2006-11-28 08:22:38 51°13.248 2°51.123 242.3 13.3 240 11.5
2006-11-28 08:22:44 51°13.237 2°51.092 242.2 13.3 240 11.5
2006-11-28 08:22:48 51°13.23 2°51.072 242.1 13.3 240 11.5
2006-11-28 08:22:53 51°13.221 2°51.046 242.3 13.3 240 11.5
2006-11-28 08:22:58 51°13.211 2°51.021 242.1 13.3 240 11.5
2006-11-28 08:23:03 51°13.202 2°50.995 242.1 13.3 240 11.6
2006-11-28 08:23:08 51°13.193 2°50.97 242.1 13.3 240 11.6
2006-11-28 08:23:13 51°13.184 2°50.945 242.2 13.3 240 11.5
2006-11-28 08:23:18 51°13.174 2°50.919 242.2 13.3 240 11.5
2006-11-28 08:23:23 51°13.165 2°50.893 242.3 13.3 241 11.6
2006-11-28 08:23:28 51°13.156 2°50.868 242.4 13.3 240 11.6
2006-11-28 08:23:33 51°13.147 2°50.842 242.5 13.3 241 11.6
2006-11-28 08:23:38 51°13.138 2°50.816 242.4 13.3 241 11.5
2006-11-28 08:23:43 51°13.129 2°50.791 242.4 13.3 240 11.6
2006-11-28 08:23:48 51°13.12 2°50.765 242.4 13.3 240 11.6
2006-11-28 08:23:53 51°13.11 2°50.74 242 13.3 240 11.6
2006-11-28 08:23:58 51°13.101 2°50.714 242 13.3 240 11.7
2006-11-28 08:24:03 51°13.092 2°50.689 242 13.3 240 11.6
2006-11-28 08:24:08 51°13.083 2°50.663 242.1 13.3 240 11.7
2006-11-28 08:24:13 51°13.074 2°50.638 242.2 13.3 240 11.6
2006-11-28 08:24:18 51°13.065 2°50.612 242.4 13.3 240 11.7
2006-11-28 08:24:23 51°13.056 2°50.587 242.4 13.3 240 11.7
2006-11-28 08:24:28 51°13.047 2°50.561 242.4 13.3 241 11.7
2006-11-28 08:24:33 51°13.037 2°50.535 242.6 13.4 240 11.7
2006-11-28 08:24:38 51°13.028 2°50.51 242.3 13.4 240 11.7
2006-11-28 08:24:44 51°13.017 2°50.479 242.3 13.3 241 11.7
2006-11-28 08:24:48 51°13.01 2°50.459 242.4 13.3 240 11.7
2006-11-28 08:24:53 51°13.001 2°50.433 242.7 13.3 241 11.7
2006-11-28 08:24:58 51°12.992 2°50.407 242.7 13.4 241 11.7
2006-11-28 08:25:03 51°12.983 2°50.382 242.4 13.4 240 11.8
2006-11-28 08:25:08 51°12.973 2°50.356 242.4 13.4 241 11.7
2006-11-28 08:25:13 51°12.964 2°50.33 242.4 13.4 240 11.7
2006-11-28 08:25:18 51°12.955 2°50.304 242.4 13.4 240 11.8
2006-11-28 08:25:24 51°12.944 2°50.274 242.3 13.4 240 11.8
2006-11-28 08:25:28 51°12.936 2°50.253 242.4 13.3 241 11.8
2006-11-28 08:25:33 51°12.927 2°50.228 242.4 13.3 240 11.8
2006-11-28 08:25:38 51°12.918 2°50.202 242.2 13.4 241 11.9
2006-11-28 08:25:44 51°12.907 2°50.171 242.3 13.4 240 11.8
2006-11-28 08:25:48 51°12.9 2°50.15 242.3 13.3 240 11.9
2006-11-28 08:25:54 51°12.889 2°50.12 242.3 13.4 240 11.8
2006-11-28 08:25:58 51°12.881 2°50.099 242.1 13.4 241 11.8
2006-11-28 08:26:03 51°12.872 2°50.073 242 13.4 240 11.8
2006-11-28 08:26:08 51°12.863 2°50.048 242.2 13.4 240 11.8
2006-11-28 08:26:13 51°12.854 2°50.022 242.2 13.4 240 11.9
2006-11-28 08:26:18 51°12.844 2°49.996 242.1 13.4 240 11.8
2006-11-28 08:26:24 51°12.833 2°49.966 242 13.4 240 11.9
2006-11-28 08:26:28 51°12.826 2°49.945 242 13.4 240 11.8
2006-11-28 08:26:33 51°12.817 2°49.919 242.2 13.4 240 11.9
2006-11-28 08:26:38 51°12.808 2°49.894 242.3 13.4 241 11.9
2006-11-28 08:26:43 51°12.799 2°49.868 242.4 13.4 241 11.9
2006-11-28 08:26:48 51°12.79 2°49.842 242.6 13.4 241 11.9
2006-11-28 08:26:52 51°12.783 2°49.821 242.6 13.4 241 11.9
2006-11-28 08:26:58 51°12.772 2°49.791 242.7 13.4 241 12
2006-11-28 08:27:03 51°12.763 2°49.765 242.3 13.4 240 12
2006-11-28 08:27:08 51°12.753 2°49.739 242.2 13.4 240 11.9
2006-11-28 08:27:13 51°12.744 2°49.714 241.7 13.3 240 11.9
2006-11-28 08:27:18 51°12.735 2°49.688 241.9 13.4 241 11.9
2006-11-28 08:27:24 51°12.724 2°49.658 242.2 13.3 240 11.9
2006-11-28 08:27:28 51°12.717 2°49.637 242.2 13.3 241 11.9
2006-11-28 08:27:33 51°12.708 2°49.612 242 13.3 240 11.9
2006-11-28 08:27:38 51°12.699 2°49.586 242 13.3 241 11.9
2006-11-28 08:27:43 51°12.69 2°49.561 242 13.3 240 11.9
2006-11-28 08:27:48 51°12.681 2°49.535 242.3 13.4 241 12
2006-11-28 08:27:53 51°12.672 2°49.509 242.4 13.3 240 12
2006-11-28 08:27:58 51°12.663 2°49.484 242.4 13.3 241 12
2006-11-28 08:28:04 51°12.651 2°49.453 242 13.4 240 12
2006-11-28 08:28:08 51°12.644 2°49.432 241.9 13.4 240 12
2006-11-28 08:28:13 51°12.635 2°49.407 242.4 13.3 241 12.1
2006-11-28 08:28:18 51°12.626 2°49.381 242.3 13.3 241 12.1
2006-11-28 08:28:23 51°12.617 2°49.355 242.4 13.4 241 12.1
2006-11-28 08:28:28 51°12.608 2°49.33 242.5 13.4 241 12.2
2006-11-28 08:28:34 51°12.597 2°49.299 242.5 13.3 240 12
2006-11-28 08:28:39 51°12.588 2°49.273 242.2 13.3 240 12.1
2006-11-28 08:28:43 51°12.581 2°49.253 242.4 13.3 240 12.1
2006-11-28 08:28:48 51°12.572 2°49.227 242.3 13.4 240 12.1
2006-11-28 08:28:53 51°12.563 2°49.202 242.4 13.3 241 12.1
2006-11-28 08:28:58 51°12.554 2°49.176 242.4 13.3 241 12.1
2006-11-28 08:29:04 51°12.543 2°49.145 242.4 13.4 240 12
2006-11-28 08:29:08 51°12.535 2°49.124 242.3 13.4 240 12.1
2006-11-28 08:29:14 51°12.525 2°49.093 242.3 13.4 240 12
2006-11-28 08:29:18 51°12.517 2°49.073 242.3 13.3 240 12.2
2006-11-28 08:29:23 51°12.508 2°49.047 242.2 13.3 240 12
2006-11-28 08:29:28 51°12.498 2°49.021 242 13.4 240 12
2006-11-28 08:29:33 51°12.489 2°48.995 242.2 13.3 241 12
2006-11-28 08:29:38 51°12.48 2°48.97 242.3 13.3 240 12
2006-11-28 08:29:43 51°12.471 2°48.944 242.3 13.3 241 12
2006-11-28 08:29:48 51°12.462 2°48.918 242.3 13.3 241 12
2006-11-28 08:29:53 51°12.453 2°48.893 242.3 13.4 240 12
2006-11-28 08:29:58 51°12.443 2°48.867 242.3 13.4 241 12.1
2006-11-28 08:30:03 51°12.434 2°48.841 242.4 13.3 241 12
2006-11-28 08:30:08 51°12.425 2°48.816 242.3 13.3 240 12
2006-11-28 08:30:12 51°12.418 2°48.795 242.3 13.4 241 12.1
2006-11-28 08:30:18 51°12.407 2°48.764 242.6 13.3 241 12
2006-11-28 08:30:23 51°12.398 2°48.738 242.6 13.3 240 12
2006-11-28 08:30:28 51°12.389 2°48.713 242.1 13.3 240 12.1
2006-11-28 08:30:34 51°12.378 2°48.682 242.1 13.3 240 12.1
2006-11-28 08:30:38 51°12.37 2°48.662 242 13.3 240 12.1
2006-11-28 08:30:43 51°12.361 2°48.636 241.9 13.3 241 12.1
2006-11-28 08:30:48 51°12.352 2°48.61 242.2 13.3 240 12.1
2006-11-28 08:30:53 51°12.343 2°48.585 242.1 13.3 241 12
2006-11-28 08:30:58 51°12.334 2°48.56 241.8 13.4 240 12.1
2006-11-28 08:31:03 51°12.325 2°48.534 242 13.3 240 12
2006-11-28 08:31:08 51°12.316 2°48.508 242.2 13.3 241 12.1
2006-11-28 08:31:13 51°12.307 2°48.483 242.2 13.3 240 12.1
2006-11-28 08:31:19 51°12.296 2°48.452 241.7 13.4 240 12.1
2006-11-28 08:31:23 51°12.288 2°48.432 242 13.3 241 12.1
2006-11-28 08:31:28 51°12.279 2°48.406 242.2 13.4 240 12.1
2006-11-28 08:31:33 51°12.27 2°48.38 242.2 13.4 241 12.1
2006-11-28 08:31:38 51°12.261 2°48.355 242.3 13.4 240 12.1
2006-11-28 08:31:43 51°12.252 2°48.329 242.1 13.4 240 12.1